createdAt,value
2023-01-29T00:00:16.972Z,99.90
2023-01-29T00:02:45.926Z,99.90
2023-01-29T00:05:27.058Z,99.90
2023-01-29T00:07:56.691Z,99.90
2023-01-29T00:10:25.755Z,99.90
2023-01-29T00:12:55.365Z,99.90
2023-01-29T00:15:25.430Z,99.90
2023-01-29T00:17:54.118Z,99.90
2023-01-29T00:20:22.723Z,99.90
2023-01-29T00:22:51.352Z,99.90
2023-01-29T00:25:20.035Z,99.90
2023-01-29T00:27:48.644Z,99.90
2023-01-29T00:30:20.115Z,99.90
2023-01-29T00:32:51.217Z,99.90
2023-01-29T00:35:19.898Z,99.90
2023-01-29T00:37:48.560Z,99.90
2023-01-29T00:40:17.949Z,99.90
2023-01-29T00:43:04.282Z,99.90
2023-01-29T00:45:33.839Z,99.90
2023-01-29T00:48:04.162Z,99.90
2023-01-29T00:50:33.217Z,99.90
2023-01-29T00:53:01.756Z,99.90
2023-01-29T00:55:30.590Z,99.90
2023-01-29T00:57:59.171Z,99.90
2023-01-29T01:00:28.765Z,99.90
2023-01-29T01:03:08.432Z,99.90
2023-01-29T01:05:39.342Z,99.90
2023-01-29T01:08:28.940Z,99.90
2023-01-29T01:11:02.678Z,99.90
2023-01-29T01:13:32.604Z,99.90
2023-01-29T01:16:01.622Z,99.90
2023-01-29T01:18:31.762Z,99.90
2023-01-29T01:21:01.817Z,99.90
2023-01-29T01:23:31.319Z,99.90
2023-01-29T01:25:59.995Z,99.90
2023-01-29T01:28:29.592Z,99.90
2023-01-29T01:30:58.247Z,99.90
2023-01-29T01:33:26.940Z,99.90
2023-01-29T01:35:56.480Z,99.90
2023-01-29T01:38:26.487Z,99.90
2023-01-29T01:40:56.417Z,99.90
2023-01-29T01:43:25.103Z,99.90
2023-01-29T01:45:54.272Z,99.90
2023-01-29T01:48:26.166Z,99.90
2023-01-29T01:51:00.820Z,99.90
2023-01-29T01:53:37.656Z,99.90
2023-01-29T01:56:10.386Z,99.90
2023-01-29T01:58:42.415Z,99.90
2023-01-29T02:01:12.929Z,99.90
2023-01-29T02:04:04.938Z,99.90
2023-01-29T02:06:52.487Z,99.90
2023-01-29T02:09:33.717Z,99.90
2023-01-29T02:12:02.890Z,99.90
2023-01-29T02:14:32.303Z,99.90
2023-01-29T02:17:02.606Z,99.90
2023-01-29T02:19:43.047Z,99.90
2023-01-29T02:22:30.700Z,99.90
2023-01-29T02:25:23.081Z,99.90
2023-01-29T02:28:17.409Z,99.90
2023-01-29T02:30:54.573Z,99.90
2023-01-29T02:33:32.802Z,99.90
2023-01-29T02:36:11.308Z,99.90
2023-01-29T02:38:47.140Z,99.90
2023-01-29T02:41:25.841Z,99.90
2023-01-29T02:44:03.473Z,99.90
2023-01-29T02:46:37.142Z,99.90
2023-01-29T02:49:13.671Z,99.90
2023-01-29T02:51:50.433Z,99.90
2023-01-29T02:54:23.483Z,99.90
2023-01-29T02:56:57.676Z,99.90
2023-01-29T02:59:34.294Z,99.90
2023-01-29T03:02:09.587Z,99.90
2023-01-29T03:04:45.862Z,99.90
2023-01-29T03:07:39.759Z,99.90
2023-01-29T03:10:17.241Z,99.90
2023-01-29T03:12:48.258Z,99.90
2023-01-29T03:15:25.306Z,99.90
2023-01-29T03:18:30.736Z,99.90
2023-01-29T03:21:28.176Z,99.90
2023-01-29T03:24:17.392Z,99.90
2023-01-29T03:27:03.394Z,99.90
2023-01-29T03:29:55.759Z,99.90
2023-01-29T03:32:32.086Z,99.90
2023-01-29T03:35:06.568Z,99.90
2023-01-29T03:37:41.165Z,99.90
2023-01-29T03:40:11.905Z,99.90
2023-01-29T03:42:51.464Z,99.90
2023-01-29T03:45:27.150Z,99.90
2023-01-29T03:48:06.216Z,99.90
2023-01-29T03:50:40.599Z,99.90
2023-01-29T03:53:18.432Z,99.90
2023-01-29T03:55:58.446Z,99.90
2023-01-29T03:58:36.833Z,99.90
2023-01-29T04:01:12.459Z,99.90
2023-01-29T04:03:49.649Z,99.90
2023-01-29T04:06:22.267Z,99.90
2023-01-29T04:09:04.629Z,99.90
2023-01-29T04:11:39.111Z,99.90
2023-01-29T04:14:08.572Z,99.90
2023-01-29T04:16:42.169Z,99.90
2023-01-29T04:19:19.671Z,99.90
2023-01-29T04:21:52.073Z,99.90
2023-01-29T04:24:21.302Z,99.90
2023-01-29T04:27:04.624Z,99.90
2023-01-29T04:29:50.324Z,99.90
2023-01-29T04:32:25.755Z,99.90
2023-01-29T04:35:02.702Z,99.90
2023-01-29T04:37:41.368Z,99.90
2023-01-29T04:40:24.801Z,99.90
2023-01-29T04:43:02.513Z,99.90
2023-01-29T04:45:42.680Z,99.90
2023-01-29T04:48:20.993Z,99.90
2023-01-29T04:50:58.062Z,99.90
2023-01-29T04:53:33.688Z,99.90
2023-01-29T04:56:09.817Z,99.90
2023-01-29T04:58:43.138Z,99.90
2023-01-29T05:01:16.221Z,99.90
2023-01-29T05:03:48.191Z,99.90
2023-01-29T05:06:19.674Z,99.90
2023-01-29T05:08:51.126Z,99.90
2023-01-29T05:11:21.144Z,99.90
2023-01-29T05:13:50.508Z,99.90
2023-01-29T05:16:23.526Z,99.90
2023-01-29T05:18:52.450Z,99.90
2023-01-29T05:21:23.576Z,99.90
2023-01-29T05:24:09.751Z,99.90
2023-01-29T05:26:56.226Z,99.90
2023-01-29T05:29:24.846Z,99.90
2023-01-29T05:31:53.652Z,99.90
2023-01-29T05:34:22.653Z,99.90
2023-01-29T05:36:52.761Z,99.90
2023-01-29T05:39:21.578Z,99.90
2023-01-29T05:41:50.206Z,99.90
2023-01-29T05:44:20.574Z,99.90
2023-01-29T05:46:49.342Z,99.90
2023-01-29T05:49:20.636Z,99.90
2023-01-29T05:51:49.166Z,99.90
2023-01-29T05:54:19.150Z,99.90
2023-01-29T05:56:47.758Z,99.90
2023-01-29T05:59:17.015Z,99.90
2023-01-29T06:01:45.638Z,99.90
2023-01-29T06:04:14.266Z,99.90
2023-01-29T06:06:42.857Z,99.90
2023-01-29T06:09:12.200Z,99.90
2023-01-29T06:11:42.315Z,99.90
2023-01-29T06:14:11.015Z,99.90
2023-01-29T06:16:39.590Z,99.90
2023-01-29T06:19:08.238Z,99.90
2023-01-29T06:21:36.980Z,99.90
2023-01-29T06:24:06.201Z,99.90
2023-01-29T06:26:34.753Z,99.90
2023-01-29T06:29:04.791Z,99.90
2023-01-29T06:31:38.875Z,99.90
2023-01-29T06:34:08.255Z,99.90
2023-01-29T06:36:37.193Z,99.90
2023-01-29T06:39:06.692Z,99.90
2023-01-29T06:41:35.795Z,99.90
2023-01-29T06:44:07.015Z,99.90
2023-01-29T06:46:35.648Z,99.90
2023-01-29T06:49:04.279Z,99.90
2023-01-29T06:51:32.953Z,99.90
2023-01-29T06:54:01.619Z,99.90
2023-01-29T06:56:30.239Z,99.90
2023-01-29T06:58:58.839Z,99.90
2023-01-29T07:01:36.110Z,99.90
2023-01-29T07:04:06.322Z,99.90
2023-01-29T07:06:35.261Z,99.90
2023-01-29T07:09:04.087Z,99.90
2023-01-29T07:11:32.872Z,99.90
2023-01-29T07:14:01.587Z,99.90
2023-01-29T07:16:31.748Z,99.90
2023-01-29T07:19:01.226Z,99.90
2023-01-29T07:21:29.908Z,99.90
2023-01-29T07:23:59.760Z,99.90
2023-01-29T07:26:28.699Z,99.90
2023-01-29T07:28:57.448Z,99.90
2023-01-29T07:31:26.106Z,99.90
2023-01-29T07:33:56.295Z,99.90
2023-01-29T07:36:25.308Z,99.90
2023-01-29T07:38:53.952Z,99.90
2023-01-29T07:41:22.897Z,99.90
2023-01-29T07:43:51.509Z,99.90
2023-01-29T07:46:20.383Z,99.90
2023-01-29T07:48:49.276Z,99.90
2023-01-29T07:51:21.511Z,99.90
2023-01-29T07:53:50.291Z,99.90
2023-01-29T07:56:18.899Z,99.90
2023-01-29T07:58:47.554Z,99.90
2023-01-29T08:01:16.454Z,99.90
2023-01-29T08:03:45.060Z,99.90
2023-01-29T08:06:13.691Z,99.90
2023-01-29T08:08:43.729Z,99.90
2023-01-29T08:11:12.316Z,99.90
2023-01-29T08:13:40.909Z,99.90
2023-01-29T08:16:10.061Z,99.90
2023-01-29T08:18:38.939Z,99.90
2023-01-29T08:21:07.698Z,99.90
2023-01-29T08:23:36.351Z,99.90
2023-01-29T08:26:06.694Z,99.90
2023-01-29T08:28:35.500Z,99.90
2023-01-29T08:31:04.163Z,99.90
2023-01-29T08:33:39.092Z,99.90
2023-01-29T08:36:09.877Z,99.90
2023-01-29T08:38:38.750Z,99.90
2023-01-29T08:41:09.771Z,99.90
2023-01-29T08:43:38.764Z,99.80
2023-01-29T08:46:08.124Z,99.50
2023-01-29T08:48:37.185Z,98.80
2023-01-29T08:51:06.039Z,98.30
2023-01-29T08:53:34.842Z,97.30
2023-01-29T08:56:03.585Z,97.40
2023-01-29T08:58:33.567Z,97.30
2023-01-29T09:01:08.176Z,97.50
2023-01-29T09:03:37.131Z,97.50
2023-01-29T09:06:06.071Z,97.50
2023-01-29T09:08:34.706Z,97.30
2023-01-29T09:11:03.435Z,96.90
2023-01-29T09:13:33.700Z,96.80
2023-01-29T09:16:03.043Z,96.20
2023-01-29T09:18:32.587Z,95.80
2023-01-29T09:21:02.705Z,95.40
2023-01-29T09:23:31.927Z,95.40
2023-01-29T09:26:01.751Z,95.60
2023-01-29T09:28:30.652Z,95.30
2023-01-29T09:31:02.976Z,94.70
2023-01-29T09:33:32.662Z,94.40
2023-01-29T09:36:01.239Z,94.00
2023-01-29T09:38:29.966Z,93.60
2023-01-29T09:41:06.528Z,93.30
2023-01-29T09:43:44.710Z,92.90
2023-01-29T09:46:20.818Z,92.60
2023-01-29T09:48:56.749Z,92.20
2023-01-29T09:51:29.973Z,93.00
2023-01-29T09:54:07.540Z,93.30
2023-01-29T09:56:37.107Z,95.30
2023-01-29T09:59:05.719Z,95.70
2023-01-29T10:01:45.875Z,96.10
2023-01-29T10:04:53.050Z,96.10
2023-01-29T10:07:38.190Z,96.30
2023-01-29T10:10:20.416Z,96.40
2023-01-29T10:13:01.182Z,96.40
2023-01-29T10:15:51.685Z,95.40
2023-01-29T10:18:50.652Z,95.50
2023-01-29T10:21:50.810Z,96.30
2023-01-29T10:24:27.512Z,95.60
2023-01-29T10:26:57.396Z,96.00
2023-01-29T10:29:28.756Z,96.20
2023-01-29T10:32:05.208Z,95.90
2023-01-29T10:34:40.611Z,95.20
2023-01-29T10:37:19.039Z,95.10
2023-01-29T10:39:47.799Z,95.00
2023-01-29T10:42:27.089Z,95.00
2023-01-29T10:45:11.692Z,94.90
2023-01-29T10:47:54.029Z,94.60
2023-01-29T10:50:41.659Z,94.00
2023-01-29T10:53:24.197Z,94.00
2023-01-29T10:56:02.470Z,94.10
2023-01-29T10:58:41.354Z,93.80
2023-01-29T11:01:11.211Z,93.40
2023-01-29T11:03:40.080Z,93.50
2023-01-29T11:06:18.564Z,93.10
2023-01-29T11:08:54.013Z,93.00
2023-01-29T11:11:26.014Z,92.70
2023-01-29T11:13:58.627Z,92.40
2023-01-29T11:16:28.551Z,92.50
2023-01-29T11:18:59.696Z,92.20
2023-01-29T11:21:30.980Z,91.90
2023-01-29T11:24:15.571Z,92.00
2023-01-29T11:26:45.986Z,91.60
2023-01-29T11:29:35.007Z,91.70
2023-01-29T11:32:07.424Z,91.30
2023-01-29T11:34:36.247Z,91.20
2023-01-29T11:37:17.006Z,90.70
2023-01-29T11:39:47.704Z,90.50
2023-01-29T11:42:22.550Z,90.30
2023-01-29T11:44:51.636Z,90.60
2023-01-29T11:47:24.247Z,90.30
2023-01-29T11:49:54.939Z,89.40
2023-01-29T11:52:26.809Z,88.60
2023-01-29T11:54:58.842Z,88.80
2023-01-29T11:57:32.372Z,87.50
2023-01-29T12:00:06.470Z,87.10
2023-01-29T12:02:39.626Z,87.00
2023-01-29T12:05:17.462Z,85.00
2023-01-29T12:07:50.987Z,82.70
2023-01-29T12:10:35.638Z,81.20
2023-01-29T12:13:19.232Z,81.40
2023-01-29T12:15:49.229Z,81.60
2023-01-29T12:18:32.359Z,82.30
2023-01-29T12:21:03.786Z,82.00
2023-01-29T12:23:41.801Z,81.10
2023-01-29T12:26:17.955Z,80.00
2023-01-29T12:28:57.032Z,81.30
2023-01-29T12:31:34.552Z,82.00
2023-01-29T12:34:11.832Z,81.70
2023-01-29T12:36:47.259Z,79.60
2023-01-29T12:39:18.958Z,79.30
2023-01-29T12:41:53.873Z,80.80
2023-01-29T12:44:26.946Z,80.20
2023-01-29T12:47:00.013Z,79.60
2023-01-29T12:49:33.251Z,78.20
2023-01-29T12:52:08.499Z,78.60
2023-01-29T12:54:42.299Z,78.40
2023-01-29T12:57:23.291Z,79.10
2023-01-29T12:59:58.667Z,79.30
2023-01-29T13:02:36.368Z,80.10
2023-01-29T13:05:15.172Z,79.50
2023-01-29T13:07:47.678Z,78.90
2023-01-29T13:10:22.302Z,79.70
2023-01-29T13:12:57.259Z,80.00
2023-01-29T13:15:31.483Z,79.70
2023-01-29T13:18:13.237Z,79.60
2023-01-29T13:20:42.610Z,80.00
2023-01-29T13:23:21.185Z,81.30
2023-01-29T13:25:53.848Z,80.90
2023-01-29T13:28:26.659Z,81.70
2023-01-29T13:31:16.153Z,82.10
2023-01-29T13:33:52.853Z,82.50
2023-01-29T13:36:27.929Z,82.70
2023-01-29T13:39:02.692Z,83.10
2023-01-29T13:41:38.353Z,83.80
2023-01-29T13:44:10.521Z,83.80
2023-01-29T13:46:42.762Z,84.60
2023-01-29T13:49:36.202Z,84.90
2023-01-29T13:52:24.120Z,85.10
2023-01-29T13:55:00.423Z,86.20
2023-01-29T13:57:53.914Z,86.50
2023-01-29T14:01:01.428Z,86.30
2023-01-29T14:04:04.901Z,86.10
2023-01-29T14:06:49.072Z,86.40
2023-01-29T14:09:34.870Z,87.40
2023-01-29T14:12:04.172Z,87.90
2023-01-29T14:15:00.675Z,87.30
2023-01-29T14:17:33.226Z,87.50
2023-01-29T14:20:05.445Z,88.10
2023-01-29T14:22:35.093Z,88.30
2023-01-29T14:25:06.245Z,88.90
2023-01-29T14:27:37.065Z,88.50
2023-01-29T14:30:11.115Z,88.50
2023-01-29T14:32:41.760Z,89.00
2023-01-29T14:35:20.302Z,89.00
2023-01-29T14:37:52.161Z,88.50
2023-01-29T14:40:25.054Z,88.90
2023-01-29T14:43:01.165Z,89.40
2023-01-29T14:45:32.703Z,89.90
2023-01-29T14:48:37.759Z,90.10
2023-01-29T14:51:12.026Z,90.00
2023-01-29T14:53:54.696Z,90.20
2023-01-29T14:56:29.655Z,90.20
2023-01-29T14:59:06.956Z,90.10
2023-01-29T15:01:40.211Z,90.10
2023-01-29T15:04:18.148Z,90.20
2023-01-29T15:06:48.818Z,90.40
2023-01-29T15:09:32.703Z,91.00
2023-01-29T15:12:14.997Z,91.30
2023-01-29T15:14:51.475Z,91.60
2023-01-29T15:17:29.367Z,91.80
2023-01-29T15:19:58.231Z,92.20
2023-01-29T15:22:29.215Z,92.40
2023-01-29T15:25:07.429Z,92.30
2023-01-29T15:27:36.399Z,92.60
2023-01-29T15:30:08.313Z,92.70
2023-01-29T15:32:41.250Z,93.10
2023-01-29T15:35:12.046Z,93.50
2023-01-29T15:37:41.880Z,93.70
2023-01-29T15:40:17.967Z,93.60
2023-01-29T15:42:49.372Z,93.90
2023-01-29T15:45:27.605Z,94.00
2023-01-29T15:48:04.528Z,94.20
2023-01-29T15:50:37.965Z,94.40
2023-01-29T15:53:10.899Z,94.70
2023-01-29T15:55:40.537Z,94.30
2023-01-29T15:58:16.322Z,94.60
2023-01-29T16:00:50.980Z,95.00
2023-01-29T16:03:24.812Z,95.00
2023-01-29T16:05:54.607Z,95.10
2023-01-29T16:08:24.988Z,95.40
2023-01-29T16:10:56.370Z,95.90
2023-01-29T16:13:27.486Z,95.40
2023-01-29T16:15:58.462Z,95.30
2023-01-29T16:18:35.173Z,95.70
2023-01-29T16:21:09.225Z,96.00
2023-01-29T16:23:43.383Z,96.00
2023-01-29T16:26:19.149Z,96.10
2023-01-29T16:28:48.986Z,96.30
2023-01-29T16:31:23.718Z,96.50
2023-01-29T16:33:54.262Z,97.00
2023-01-29T16:36:25.980Z,97.40
2023-01-29T16:39:00.003Z,97.00
2023-01-29T16:41:33.725Z,97.60
2023-01-29T16:44:03.847Z,99.90
2023-01-29T16:46:37.543Z,99.90
2023-01-29T16:49:45.017Z,99.90
2023-01-29T16:52:19.852Z,99.60
2023-01-29T16:54:49.343Z,99.80
2023-01-29T16:57:21.002Z,99.90
2023-01-29T16:59:50.057Z,99.50
2023-01-29T17:02:25.190Z,99.70
2023-01-29T17:05:00.299Z,99.90
2023-01-29T17:07:30.727Z,99.90
2023-01-29T17:10:02.535Z,99.90
2023-01-29T17:12:33.170Z,99.90
2023-01-29T17:15:03.247Z,99.90
2023-01-29T17:17:33.586Z,98.30
2023-01-29T17:20:15.368Z,98.10
2023-01-29T17:22:44.882Z,97.90
2023-01-29T17:25:16.114Z,98.20
2023-01-29T17:27:51.692Z,98.00
2023-01-29T17:30:22.836Z,98.20
2023-01-29T17:32:51.520Z,98.30
2023-01-29T17:35:23.550Z,98.10
2023-01-29T17:37:52.165Z,98.20
2023-01-29T17:40:31.883Z,98.20
2023-01-29T17:43:01.438Z,98.40
2023-01-29T17:45:30.263Z,98.60
2023-01-29T17:47:59.769Z,98.70
2023-01-29T17:50:33.146Z,99.10
2023-01-29T17:53:02.893Z,99.00
2023-01-29T17:55:31.597Z,98.60
2023-01-29T17:58:00.347Z,98.50
2023-01-29T18:00:29.005Z,98.80
2023-01-29T18:02:58.219Z,99.90
2023-01-29T18:05:26.916Z,99.90
2023-01-29T18:07:56.933Z,99.90
2023-01-29T18:10:25.591Z,99.90
2023-01-29T18:12:54.453Z,99.90
2023-01-29T18:15:23.432Z,99.90
2023-01-29T18:17:53.287Z,99.90
2023-01-29T18:20:25.821Z,99.90
2023-01-29T18:22:57.123Z,99.90
2023-01-29T18:25:25.919Z,99.90
2023-01-29T18:27:54.582Z,99.90
2023-01-29T18:30:23.385Z,99.90
2023-01-29T18:32:52.038Z,99.90
2023-01-29T18:35:20.768Z,99.90
2023-01-29T18:37:49.514Z,99.90
2023-01-29T18:40:20.225Z,99.90
2023-01-29T18:42:49.244Z,99.90
2023-01-29T18:45:18.860Z,99.90
2023-01-29T18:47:48.754Z,99.90
2023-01-29T18:50:19.142Z,99.90
2023-01-29T18:52:47.875Z,99.90
2023-01-29T18:55:17.076Z,99.90
2023-01-29T18:58:28.771Z,99.90
2023-01-29T19:00:36.579Z,99.90
2023-01-29T19:03:05.361Z,99.90
2023-01-29T19:05:35.525Z,99.90
2023-01-29T19:08:05.384Z,99.90
2023-01-29T19:10:34.172Z,99.90
2023-01-29T19:13:05.873Z,99.90
2023-01-29T19:15:36.107Z,99.90
2023-01-29T19:18:04.883Z,99.90
2023-01-29T19:20:34.426Z,99.90
2023-01-29T19:23:02.993Z,99.90
2023-01-29T19:25:31.663Z,99.90
2023-01-29T19:28:00.303Z,99.90
2023-01-29T19:30:30.521Z,99.90
2023-01-29T19:32:59.195Z,99.90
2023-01-29T19:35:28.585Z,99.90
2023-01-29T19:37:57.373Z,99.90
2023-01-29T19:40:26.733Z,99.90
2023-01-29T19:42:56.771Z,99.90
2023-01-29T19:45:49.901Z,99.90
2023-01-29T19:48:17.794Z,99.90
2023-01-29T19:50:53.450Z,99.90
2023-01-29T19:53:22.986Z,99.90
2023-01-29T19:55:58.770Z,99.90
2023-01-29T19:58:27.602Z,99.90
2023-01-29T20:00:57.557Z,99.90
2023-01-29T20:03:29.254Z,99.90
2023-01-29T20:06:02.601Z,99.90
2023-01-29T20:08:31.762Z,99.90
2023-01-29T20:11:02.228Z,99.90
2023-01-29T20:13:30.977Z,99.90
2023-01-29T20:16:03.195Z,99.90
2023-01-29T20:18:34.505Z,99.90
2023-01-29T20:21:08.226Z,99.90
2023-01-29T20:23:38.735Z,99.90
2023-01-29T20:26:08.761Z,99.90
2023-01-29T20:28:38.691Z,99.90
2023-01-29T20:31:08.997Z,99.90
2023-01-29T20:33:40.571Z,99.90
2023-01-29T20:36:11.572Z,99.90
2023-01-29T20:38:40.589Z,99.90
2023-01-29T20:41:10.634Z,99.90
2023-01-29T20:43:40.730Z,99.90
2023-01-29T20:46:10.112Z,99.90
2023-01-29T20:48:42.655Z,99.90
2023-01-29T20:51:15.857Z,99.90
2023-01-29T20:53:47.531Z,99.90
2023-01-29T20:56:18.151Z,99.90
2023-01-29T20:58:50.116Z,99.90
2023-01-29T21:01:21.545Z,99.90
2023-01-29T21:03:52.666Z,99.90
2023-01-29T21:06:25.131Z,99.90
2023-01-29T21:08:54.370Z,99.90
2023-01-29T21:11:23.485Z,99.90
2023-01-29T21:13:54.439Z,99.90
2023-01-29T21:16:23.056Z,99.90
2023-01-29T21:18:55.958Z,99.90
2023-01-29T21:21:26.767Z,99.90
2023-01-29T21:23:55.777Z,99.90
2023-01-29T21:26:25.098Z,99.90
2023-01-29T21:28:53.833Z,99.90
2023-01-29T21:31:23.210Z,99.90
2023-01-29T21:33:55.027Z,99.90
2023-01-29T21:36:25.506Z,99.90
2023-01-29T21:39:36.462Z,99.90
2023-01-29T21:42:24.093Z,99.90
2023-01-29T21:44:53.236Z,99.90
2023-01-29T21:47:22.444Z,99.90
2023-01-29T21:49:51.089Z,99.90
2023-01-29T21:52:19.698Z,99.90
2023-01-29T21:54:51.228Z,99.90
2023-01-29T21:57:19.866Z,99.90
2023-01-29T21:59:52.951Z,99.90
2023-01-29T22:02:22.857Z,99.90
2023-01-29T22:04:52.490Z,99.90
2023-01-29T22:07:21.138Z,99.90
2023-01-29T22:09:51.433Z,99.90
2023-01-29T22:12:20.378Z,99.90
2023-01-29T22:14:49.071Z,99.90
2023-01-29T22:17:19.767Z,99.90
2023-01-29T22:19:48.664Z,99.90
2023-01-29T22:22:19.854Z,99.90
2023-01-29T22:24:48.548Z,99.90
2023-01-29T22:27:18.628Z,99.90
2023-01-29T22:29:47.334Z,99.90
2023-01-29T22:32:16.442Z,99.90
2023-01-29T22:34:45.384Z,99.90
2023-01-29T22:37:14.099Z,99.90
2023-01-29T22:39:42.803Z,99.90
2023-01-29T22:42:11.586Z,99.90
2023-01-29T22:44:41.633Z,99.90
2023-01-29T22:47:10.207Z,99.90
2023-01-29T22:49:39.148Z,99.90
2023-01-29T22:52:14.145Z,99.90
2023-01-29T22:54:44.279Z,99.90
2023-01-29T22:57:14.702Z,99.90
2023-01-29T22:59:44.763Z,99.90
2023-01-29T23:02:13.326Z,99.90
2023-01-29T23:04:42.066Z,99.90
2023-01-29T23:07:11.461Z,99.90
2023-01-29T23:09:40.038Z,99.90
2023-01-29T23:12:09.046Z,99.90
2023-01-29T23:14:38.277Z,99.90
2023-01-29T23:17:08.291Z,99.90
2023-01-29T23:19:36.991Z,99.90
2023-01-29T23:22:05.813Z,99.90
2023-01-29T23:24:34.558Z,99.90
2023-01-29T23:27:17.396Z,99.90
2023-01-29T23:29:48.606Z,99.90
2023-01-29T23:32:21.981Z,99.90
2023-01-29T23:34:50.683Z,99.90
2023-01-29T23:37:19.271Z,99.90
2023-01-29T23:39:47.864Z,99.90
2023-01-29T23:42:16.471Z,99.90
2023-01-29T23:44:45.075Z,99.90
2023-01-29T23:47:13.665Z,99.90
2023-01-29T23:49:43.841Z,99.90
2023-01-29T23:52:12.459Z,99.90
2023-01-29T23:54:41.051Z,99.90
2023-01-29T23:57:09.668Z,99.90
2023-01-29T23:59:38.317Z,99.90
